sensor_id;sensor_type;location;lat;lon;timestamp;P1;durP1;ratioP1;P2;durP2;ratioP2
50585;SDS011;36542;51.700;8.846;2023-01-29T00:00:03;45.47;;;24.90;;
50585;SDS011;36542;51.700;8.846;2023-01-29T00:02:34;48.07;;;24.43;;
50585;SDS011;36542;51.700;8.846;2023-01-29T00:05:00;47.40;;;24.93;;
50585;SDS011;36542;51.700;8.846;2023-01-29T00:07:26;42.00;;;23.50;;
50585;SDS011;36542;51.700;8.846;2023-01-29T00:09:52;50.30;;;25.80;;
50585;SDS011;36542;51.700;8.846;2023-01-29T00:12:17;50.13;;;24.57;;
50585;SDS011;36542;51.700;8.846;2023-01-29T00:14:43;50.07;;;25.80;;
50585;SDS011;36542;51.700;8.846;2023-01-29T00:17:08;45.50;;;22.70;;
50585;SDS011;36542;51.700;8.846;2023-01-29T00:19:34;44.43;;;24.60;;
50585;SDS011;36542;51.700;8.846;2023-01-29T00:22:00;46.93;;;23.77;;
50585;SDS011;36542;51.700;8.846;2023-01-29T00:24:25;48.53;;;24.83;;
50585;SDS011;36542;51.700;8.846;2023-01-29T00:26:51;47.30;;;24.03;;
50585;SDS011;36542;51.700;8.846;2023-01-29T00:29:16;48.10;;;24.40;;
50585;SDS011;36542;51.700;8.846;2023-01-29T00:31:42;47.20;;;25.47;;
50585;SDS011;36542;51.700;8.846;2023-01-29T00:34:08;53.53;;;25.47;;
50585;SDS011;36542;51.700;8.846;2023-01-29T00:36:34;53.70;;;24.93;;
50585;SDS011;36542;51.700;8.846;2023-01-29T00:38:59;50.93;;;26.20;;
50585;SDS011;36542;51.700;8.846;2023-01-29T00:41:31;46.80;;;23.83;;
50585;SDS011;36542;51.700;8.846;2023-01-29T00:44:16;48.77;;;24.87;;
50585;SDS011;36542;51.700;8.846;2023-01-29T00:47:00;53.00;;;26.43;;
50585;SDS011;36542;51.700;8.846;2023-01-29T00:49:26;51.83;;;25.93;;
50585;SDS011;36542;51.700;8.846;2023-01-29T00:51:52;52.00;;;26.30;;
50585;SDS011;36542;51.700;8.846;2023-01-29T00:54:36;53.70;;;25.60;;
50585;SDS011;36542;51.700;8.846;2023-01-29T00:57:02;52.37;;;26.00;;
50585;SDS011;36542;51.700;8.846;2023-01-29T00:59:28;48.90;;;25.00;;
50585;SDS011;36542;51.700;8.846;2023-01-29T01:01:53;48.03;;;24.83;;
50585;SDS011;36542;51.700;8.846;2023-01-29T01:04:38;51.53;;;24.97;;
50585;SDS011;36542;51.700;8.846;2023-01-29T01:07:03;54.20;;;26.60;;
50585;SDS011;36542;51.700;8.846;2023-01-29T01:09:29;51.97;;;25.33;;
50585;SDS011;36542;51.700;8.846;2023-01-29T01:12:13;49.90;;;24.00;;
50585;SDS011;36542;51.700;8.846;2023-01-29T01:14:38;50.37;;;24.37;;
50585;SDS011;36542;51.700;8.846;2023-01-29T01:17:07;48.87;;;24.87;;
50585;SDS011;36542;51.700;8.846;2023-01-29T01:19:33;54.53;;;28.33;;
50585;SDS011;36542;51.700;8.846;2023-01-29T01:21:59;52.50;;;26.47;;
50585;SDS011;36542;51.700;8.846;2023-01-29T01:24:24;53.30;;;25.97;;
50585;SDS011;36542;51.700;8.846;2023-01-29T01:26:50;50.43;;;24.67;;
50585;SDS011;36542;51.700;8.846;2023-01-29T01:29:15;51.33;;;25.63;;
50585;SDS011;36542;51.700;8.846;2023-01-29T01:31:41;43.47;;;22.43;;
50585;SDS011;36542;51.700;8.846;2023-01-29T01:34:06;43.77;;;22.43;;
50585;SDS011;36542;51.700;8.846;2023-01-29T01:36:32;49.60;;;24.27;;
50585;SDS011;36542;51.700;8.846;2023-01-29T01:38:57;51.03;;;25.03;;
50585;SDS011;36542;51.700;8.846;2023-01-29T01:41:23;49.07;;;24.27;;
50585;SDS011;36542;51.700;8.846;2023-01-29T01:43:51;47.30;;;22.97;;
50585;SDS011;36542;51.700;8.846;2023-01-29T01:46:21;51.80;;;24.50;;
50585;SDS011;36542;51.700;8.846;2023-01-29T01:51:34;55.00;;;24.70;;
50585;SDS011;36542;51.700;8.846;2023-01-29T01:54:05;49.23;;;24.13;;
50585;SDS011;36542;51.700;8.846;2023-01-29T01:56:35;53.43;;;24.83;;
50585;SDS011;36542;51.700;8.846;2023-01-29T01:59:06;53.10;;;25.17;;
50585;SDS011;36542;51.700;8.846;2023-01-29T02:01:38;55.97;;;25.37;;
50585;SDS011;36542;51.700;8.846;2023-01-29T02:04:11;59.33;;;27.83;;
50585;SDS011;36542;51.700;8.846;2023-01-29T02:06:57;56.97;;;27.37;;
50585;SDS011;36542;51.700;8.846;2023-01-29T02:12:32;54.30;;;24.93;;
50585;SDS011;36542;51.700;8.846;2023-01-29T02:14:58;50.20;;;24.17;;
50585;SDS011;36542;51.700;8.846;2023-01-29T02:17:24;52.20;;;24.47;;
50585;SDS011;36542;51.700;8.846;2023-01-29T02:20:04;53.57;;;26.67;;
50585;SDS011;36542;51.700;8.846;2023-01-29T02:28:53;49.83;;;24.67;;
50585;SDS011;36542;51.700;8.846;2023-01-29T02:34:27;57.10;;;25.37;;
50585;SDS011;36542;51.700;8.846;2023-01-29T02:37:32;53.80;;;24.63;;
50585;SDS011;36542;51.700;8.846;2023-01-29T02:40:49;51.90;;;24.23;;
50585;SDS011;36542;51.700;8.846;2023-01-29T02:45:42;57.53;;;26.77;;
50585;SDS011;36542;51.700;8.846;2023-01-29T02:48:18;53.73;;;23.97;;
50585;SDS011;36542;51.700;8.846;2023-01-29T02:50:48;44.33;;;23.10;;
50585;SDS011;36542;51.700;8.846;2023-01-29T02:53:34;47.10;;;23.23;;
50585;SDS011;36542;51.700;8.846;2023-01-29T02:56:17;49.27;;;23.07;;
50585;SDS011;36542;51.700;8.846;2023-01-29T02:58:48;47.30;;;22.87;;
50585;SDS011;36542;51.700;8.846;2023-01-29T03:01:20;53.37;;;24.27;;
50585;SDS011;36542;51.700;8.846;2023-01-29T03:03:55;51.77;;;24.50;;
50585;SDS011;36542;51.700;8.846;2023-01-29T03:06:26;47.37;;;23.13;;
50585;SDS011;36542;51.700;8.846;2023-01-29T03:09:40;52.40;;;23.17;;
50585;SDS011;36542;51.700;8.846;2023-01-29T03:11:50;50.37;;;24.97;;
50585;SDS011;36542;51.700;8.846;2023-01-29T03:14:29;51.73;;;24.83;;
50585;SDS011;36542;51.700;8.846;2023-01-29T03:17:19;56.17;;;28.70;;
50585;SDS011;36542;51.700;8.846;2023-01-29T03:19:50;48.97;;;24.60;;
50585;SDS011;36542;51.700;8.846;2023-01-29T03:22:16;53.80;;;24.00;;
50585;SDS011;36542;51.700;8.846;2023-01-29T03:24:47;49.97;;;24.60;;
50585;SDS011;36542;51.700;8.846;2023-01-29T03:27:37;50.40;;;25.23;;
50585;SDS011;36542;51.700;8.846;2023-01-29T03:30:49;49.27;;;23.53;;
50585;SDS011;36542;51.700;8.846;2023-01-29T03:33:50;50.23;;;23.47;;
50585;SDS011;36542;51.700;8.846;2023-01-29T03:36:26;48.50;;;24.67;;
50585;SDS011;36542;51.700;8.846;2023-01-29T03:39:07;49.63;;;23.20;;
50585;SDS011;36542;51.700;8.846;2023-01-29T03:41:36;52.60;;;24.93;;
50585;SDS011;36542;51.700;8.846;2023-01-29T03:44:17;50.07;;;25.20;;
50585;SDS011;36542;51.700;8.846;2023-01-29T03:46:55;48.77;;;23.40;;
50585;SDS011;36542;51.700;8.846;2023-01-29T03:49:52;48.50;;;23.53;;
50585;SDS011;36542;51.700;8.846;2023-01-29T03:52:25;54.40;;;24.93;;
50585;SDS011;36542;51.700;8.846;2023-01-29T04:00:56;59.43;;;26.87;;
50585;SDS011;36542;51.700;8.846;2023-01-29T04:03:43;56.13;;;25.87;;
50585;SDS011;36542;51.700;8.846;2023-01-29T04:06:28;56.70;;;25.30;;
50585;SDS011;36542;51.700;8.846;2023-01-29T04:08:57;55.70;;;26.87;;
50585;SDS011;36542;51.700;8.846;2023-01-29T04:11:33;62.13;;;27.03;;
50585;SDS011;36542;51.700;8.846;2023-01-29T04:14:02;58.73;;;26.33;;
50585;SDS011;36542;51.700;8.846;2023-01-29T04:16:30;58.23;;;24.87;;
50585;SDS011;36542;51.700;8.846;2023-01-29T04:19:01;54.13;;;26.50;;
50585;SDS011;36542;51.700;8.846;2023-01-29T04:21:26;58.40;;;27.20;;
50585;SDS011;36542;51.700;8.846;2023-01-29T04:23:53;55.83;;;26.13;;
50585;SDS011;36542;51.700;8.846;2023-01-29T04:29:19;55.13;;;25.60;;
50585;SDS011;36542;51.700;8.846;2023-01-29T04:32:09;63.10;;;28.07;;
50585;SDS011;36542;51.700;8.846;2023-01-29T04:37:35;53.50;;;26.40;;
50585;SDS011;36542;51.700;8.846;2023-01-29T04:40:13;55.97;;;25.53;;
50585;SDS011;36542;51.700;8.846;2023-01-29T04:42:51;52.93;;;25.17;;
50585;SDS011;36542;51.700;8.846;2023-01-29T04:45:35;57.40;;;25.80;;
50585;SDS011;36542;51.700;8.846;2023-01-29T04:48:28;55.60;;;27.33;;
50585;SDS011;36542;51.700;8.846;2023-01-29T04:56:18;48.53;;;22.93;;
50585;SDS011;36542;51.700;8.846;2023-01-29T04:59:05;50.33;;;24.23;;
50585;SDS011;36542;51.700;8.846;2023-01-29T05:01:33;52.03;;;23.83;;
50585;SDS011;36542;51.700;8.846;2023-01-29T05:04:01;50.13;;;24.47;;
50585;SDS011;36542;51.700;8.846;2023-01-29T05:06:32;52.67;;;24.77;;
50585;SDS011;36542;51.700;8.846;2023-01-29T05:08:59;59.70;;;26.50;;
50585;SDS011;36542;51.700;8.846;2023-01-29T05:11:26;49.63;;;25.30;;
50585;SDS011;36542;51.700;8.846;2023-01-29T05:13:54;49.93;;;24.67;;
50585;SDS011;36542;51.700;8.846;2023-01-29T05:16:27;55.53;;;24.77;;
50585;SDS011;36542;51.700;8.846;2023-01-29T05:19:05;55.40;;;25.63;;
50585;SDS011;36542;51.700;8.846;2023-01-29T05:21:32;54.10;;;25.90;;
50585;SDS011;36542;51.700;8.846;2023-01-29T05:24:08;57.77;;;27.07;;
50585;SDS011;36542;51.700;8.846;2023-01-29T05:26:39;55.27;;;24.70;;
50585;SDS011;36542;51.700;8.846;2023-01-29T05:29:25;55.20;;;26.03;;
50585;SDS011;36542;51.700;8.846;2023-01-29T05:31:50;52.07;;;25.07;;
50585;SDS011;36542;51.700;8.846;2023-01-29T05:34:16;53.73;;;25.70;;
50585;SDS011;36542;51.700;8.846;2023-01-29T05:36:41;51.63;;;25.47;;
50585;SDS011;36542;51.700;8.846;2023-01-29T05:39:07;52.60;;;25.63;;
50585;SDS011;36542;51.700;8.846;2023-01-29T05:41:32;56.17;;;26.87;;
50585;SDS011;36542;51.700;8.846;2023-01-29T05:43:57;58.00;;;28.43;;
50585;SDS011;36542;51.700;8.846;2023-01-29T05:46:23;56.93;;;27.70;;
50585;SDS011;36542;51.700;8.846;2023-01-29T05:48:51;53.07;;;26.67;;
50585;SDS011;36542;51.700;8.846;2023-01-29T05:51:17;57.93;;;27.90;;
50585;SDS011;36542;51.700;8.846;2023-01-29T05:53:42;53.47;;;26.57;;
50585;SDS011;36542;51.700;8.846;2023-01-29T05:56:07;59.57;;;26.73;;
50585;SDS011;36542;51.700;8.846;2023-01-29T05:58:33;55.50;;;27.43;;
50585;SDS011;36542;51.700;8.846;2023-01-29T06:01:19;58.23;;;27.63;;
50585;SDS011;36542;51.700;8.846;2023-01-29T06:03:46;46.83;;;24.37;;
50585;SDS011;36542;51.700;8.846;2023-01-29T06:06:12;45.40;;;23.80;;
50585;SDS011;36542;51.700;8.846;2023-01-29T06:08:39;42.80;;;22.63;;
50585;SDS011;36542;51.700;8.846;2023-01-29T06:11:09;49.37;;;24.30;;
50585;SDS011;36542;51.700;8.846;2023-01-29T06:13:37;51.23;;;23.90;;
50585;SDS011;36542;51.700;8.846;2023-01-29T06:16:03;46.67;;;23.87;;
50585;SDS011;36542;51.700;8.846;2023-01-29T06:18:33;51.30;;;25.43;;
50585;SDS011;36542;51.700;8.846;2023-01-29T06:21:00;59.33;;;27.07;;
50585;SDS011;36542;51.700;8.846;2023-01-29T06:23:27;56.17;;;26.27;;
50585;SDS011;36542;51.700;8.846;2023-01-29T06:25:57;56.80;;;27.83;;
50585;SDS011;36542;51.700;8.846;2023-01-29T06:28:23;58.07;;;28.77;;
50585;SDS011;36542;51.700;8.846;2023-01-29T06:30:49;55.43;;;25.80;;
50585;SDS011;36542;51.700;8.846;2023-01-29T06:33:14;51.90;;;25.60;;
50585;SDS011;36542;51.700;8.846;2023-01-29T06:35:40;54.50;;;26.10;;
50585;SDS011;36542;51.700;8.846;2023-01-29T06:38:05;52.40;;;24.83;;
50585;SDS011;36542;51.700;8.846;2023-01-29T06:40:31;54.97;;;24.53;;
50585;SDS011;36542;51.700;8.846;2023-01-29T06:42:58;53.27;;;26.17;;
50585;SDS011;36542;51.700;8.846;2023-01-29T06:45:24;52.17;;;26.07;;
50585;SDS011;36542;51.700;8.846;2023-01-29T06:47:50;52.13;;;26.00;;
50585;SDS011;36542;51.700;8.846;2023-01-29T06:50:15;55.53;;;26.30;;
50585;SDS011;36542;51.700;8.846;2023-01-29T06:52:41;59.07;;;27.50;;
50585;SDS011;36542;51.700;8.846;2023-01-29T06:55:06;53.53;;;25.20;;
50585;SDS011;36542;51.700;8.846;2023-01-29T06:57:32;57.03;;;26.53;;
50585;SDS011;36542;51.700;8.846;2023-01-29T06:59:58;60.40;;;25.87;;
50585;SDS011;36542;51.700;8.846;2023-01-29T07:02:23;55.53;;;25.43;;
50585;SDS011;36542;51.700;8.846;2023-01-29T07:04:49;58.60;;;26.50;;
50585;SDS011;36542;51.700;8.846;2023-01-29T07:07:14;55.67;;;26.13;;
50585;SDS011;36542;51.700;8.846;2023-01-29T07:09:40;56.47;;;26.20;;
50585;SDS011;36542;51.700;8.846;2023-01-29T07:12:06;55.07;;;26.00;;
50585;SDS011;36542;51.700;8.846;2023-01-29T07:14:32;62.43;;;26.87;;
50585;SDS011;36542;51.700;8.846;2023-01-29T07:16:58;55.40;;;26.03;;
50585;SDS011;36542;51.700;8.846;2023-01-29T07:19:23;53.33;;;25.80;;
50585;SDS011;36542;51.700;8.846;2023-01-29T07:21:49;48.73;;;24.87;;
50585;SDS011;36542;51.700;8.846;2023-01-29T07:24:14;50.67;;;25.77;;
50585;SDS011;36542;51.700;8.846;2023-01-29T07:26:43;50.83;;;25.43;;
50585;SDS011;36542;51.700;8.846;2023-01-29T07:29:09;47.33;;;24.83;;
50585;SDS011;36542;51.700;8.846;2023-01-29T07:31:34;50.07;;;26.60;;
50585;SDS011;36542;51.700;8.846;2023-01-29T07:34:00;44.97;;;22.60;;
50585;SDS011;36542;51.700;8.846;2023-01-29T07:36:25;40.60;;;22.03;;
50585;SDS011;36542;51.700;8.846;2023-01-29T07:38:51;47.60;;;23.37;;
50585;SDS011;36542;51.700;8.846;2023-01-29T07:41:16;46.80;;;22.87;;
50585;SDS011;36542;51.700;8.846;2023-01-29T07:43:42;44.40;;;21.63;;
50585;SDS011;36542;51.700;8.846;2023-01-29T07:46:08;49.43;;;21.80;;
50585;SDS011;36542;51.700;8.846;2023-01-29T07:48:33;45.97;;;23.57;;
50585;SDS011;36542;51.700;8.846;2023-01-29T07:50:59;48.20;;;24.17;;
50585;SDS011;36542;51.700;8.846;2023-01-29T07:53:25;45.90;;;23.27;;
50585;SDS011;36542;51.700;8.846;2023-01-29T07:55:52;47.17;;;23.33;;
50585;SDS011;36542;51.700;8.846;2023-01-29T07:58:17;46.40;;;24.00;;
50585;SDS011;36542;51.700;8.846;2023-01-29T08:00:43;50.90;;;25.97;;
50585;SDS011;36542;51.700;8.846;2023-01-29T08:03:16;50.67;;;25.23;;
50585;SDS011;36542;51.700;8.846;2023-01-29T08:05:43;45.53;;;22.93;;
50585;SDS011;36542;51.700;8.846;2023-01-29T08:08:09;48.63;;;23.80;;
50585;SDS011;36542;51.700;8.846;2023-01-29T08:10:35;38.60;;;22.07;;
50585;SDS011;36542;51.700;8.846;2023-01-29T08:13:02;41.70;;;20.57;;
50585;SDS011;36542;51.700;8.846;2023-01-29T08:15:28;44.87;;;22.83;;
50585;SDS011;36542;51.700;8.846;2023-01-29T08:17:54;43.40;;;21.37;;
50585;SDS011;36542;51.700;8.846;2023-01-29T08:20:20;44.53;;;22.33;;
50585;SDS011;36542;51.700;8.846;2023-01-29T08:22:46;43.33;;;22.50;;
50585;SDS011;36542;51.700;8.846;2023-01-29T08:25:12;39.40;;;21.07;;
50585;SDS011;36542;51.700;8.846;2023-01-29T08:27:39;44.13;;;21.37;;
50585;SDS011;36542;51.700;8.846;2023-01-29T08:30:05;41.87;;;21.63;;
50585;SDS011;36542;51.700;8.846;2023-01-29T08:32:32;36.40;;;20.73;;
50585;SDS011;36542;51.700;8.846;2023-01-29T08:34:57;39.30;;;20.30;;
50585;SDS011;36542;51.700;8.846;2023-01-29T08:37:23;42.23;;;23.33;;
50585;SDS011;36542;51.700;8.846;2023-01-29T08:39:48;46.33;;;25.90;;
50585;SDS011;36542;51.700;8.846;2023-01-29T08:42:13;37.93;;;22.07;;
50585;SDS011;36542;51.700;8.846;2023-01-29T08:44:39;38.37;;;21.77;;
50585;SDS011;36542;51.700;8.846;2023-01-29T08:47:04;39.20;;;21.53;;
50585;SDS011;36542;51.700;8.846;2023-01-29T08:49:30;39.07;;;20.13;;
50585;SDS011;36542;51.700;8.846;2023-01-29T08:51:55;35.17;;;18.57;;
50585;SDS011;36542;51.700;8.846;2023-01-29T08:54:21;40.33;;;22.40;;
50585;SDS011;36542;51.700;8.846;2023-01-29T08:56:47;83.90;;;41.83;;
50585;SDS011;36542;51.700;8.846;2023-01-29T08:59:13;54.50;;;29.60;;
50585;SDS011;36542;51.700;8.846;2023-01-29T09:01:39;48.63;;;27.00;;
50585;SDS011;36542;51.700;8.846;2023-01-29T09:04:05;33.10;;;19.83;;
50585;SDS011;36542;51.700;8.846;2023-01-29T09:06:31;49.07;;;26.67;;
50585;SDS011;36542;51.700;8.846;2023-01-29T09:08:56;36.47;;;20.33;;
50585;SDS011;36542;51.700;8.846;2023-01-29T09:11:22;37.30;;;18.13;;
50585;SDS011;36542;51.700;8.846;2023-01-29T09:13:47;40.57;;;20.90;;
50585;SDS011;36542;51.700;8.846;2023-01-29T09:16:12;39.53;;;20.77;;
50585;SDS011;36542;51.700;8.846;2023-01-29T09:18:38;38.90;;;20.17;;
50585;SDS011;36542;51.700;8.846;2023-01-29T09:21:03;36.57;;;20.90;;
50585;SDS011;36542;51.700;8.846;2023-01-29T09:23:29;46.33;;;25.17;;
50585;SDS011;36542;51.700;8.846;2023-01-29T09:25:55;39.37;;;20.63;;
50585;SDS011;36542;51.700;8.846;2023-01-29T09:28:21;45.23;;;21.30;;
50585;SDS011;36542;51.700;8.846;2023-01-29T09:30:47;45.03;;;23.17;;
50585;SDS011;36542;51.700;8.846;2023-01-29T09:33:12;36.20;;;20.47;;
50585;SDS011;36542;51.700;8.846;2023-01-29T09:35:41;35.50;;;19.23;;
50585;SDS011;36542;51.700;8.846;2023-01-29T09:38:08;35.50;;;18.60;;
50585;SDS011;36542;51.700;8.846;2023-01-29T09:40:37;34.87;;;18.00;;
50585;SDS011;36542;51.700;8.846;2023-01-29T09:46:14;34.90;;;18.43;;
50585;SDS011;36542;51.700;8.846;2023-01-29T09:48:58;32.73;;;18.83;;
50585;SDS011;36542;51.700;8.846;2023-01-29T09:51:32;35.67;;;18.70;;
50585;SDS011;36542;51.700;8.846;2023-01-29T09:56:40;36.47;;;18.60;;
50585;SDS011;36542;51.700;8.846;2023-01-29T09:59:09;30.23;;;18.37;;
50585;SDS011;36542;51.700;8.846;2023-01-29T10:01:44;32.47;;;18.43;;
50585;SDS011;36542;51.700;8.846;2023-01-29T10:04:41;36.07;;;19.30;;
50585;SDS011;36542;51.700;8.846;2023-01-29T10:17:52;34.43;;;21.23;;
50585;SDS011;36542;51.700;8.846;2023-01-29T10:23:26;30.93;;;17.50;;
50585;SDS011;36542;51.700;8.846;2023-01-29T10:25:57;30.87;;;17.40;;
50585;SDS011;36542;51.700;8.846;2023-01-29T10:28:25;28.47;;;16.23;;
50585;SDS011;36542;51.700;8.846;2023-01-29T10:31:06;27.27;;;16.33;;
50585;SDS011;36542;51.700;8.846;2023-01-29T10:33:53;28.60;;;16.43;;
50585;SDS011;36542;51.700;8.846;2023-01-29T10:36:22;27.97;;;15.50;;
50585;SDS011;36542;51.700;8.846;2023-01-29T10:38:56;29.37;;;15.57;;
50585;SDS011;36542;51.700;8.846;2023-01-29T10:46:58;31.20;;;17.30;;
50585;SDS011;36542;51.700;8.846;2023-01-29T10:49:55;22.55;;;13.60;;
50585;SDS011;36542;51.700;8.846;2023-01-29T10:59:03;26.97;;;14.67;;
50585;SDS011;36542;51.700;8.846;2023-01-29T11:01:38;22.97;;;13.37;;
50585;SDS011;36542;51.700;8.846;2023-01-29T11:04:05;26.17;;;14.47;;
50585;SDS011;36542;51.700;8.846;2023-01-29T11:06:35;23.03;;;13.40;;
50585;SDS011;36542;51.700;8.846;2023-01-29T11:09:05;25.27;;;13.03;;
50585;SDS011;36542;51.700;8.846;2023-01-29T11:11:56;25.63;;;13.10;;
50585;SDS011;36542;51.700;8.846;2023-01-29T11:14:30;23.23;;;13.03;;
50585;SDS011;36542;51.700;8.846;2023-01-29T11:17:05;20.93;;;12.87;;
50585;SDS011;36542;51.700;8.846;2023-01-29T11:19:41;22.03;;;12.90;;
50585;SDS011;36542;51.700;8.846;2023-01-29T11:22:15;23.23;;;12.83;;
50585;SDS011;36542;51.700;8.846;2023-01-29T11:24:43;22.23;;;12.40;;
50585;SDS011;36542;51.700;8.846;2023-01-29T11:27:13;20.57;;;12.93;;
50585;SDS011;36542;51.700;8.846;2023-01-29T11:29:46;24.10;;;13.43;;
50585;SDS011;36542;51.700;8.846;2023-01-29T11:32:13;23.47;;;12.60;;
50585;SDS011;36542;51.700;8.846;2023-01-29T11:37:36;23.87;;;12.57;;
50585;SDS011;36542;51.700;8.846;2023-01-29T11:40:45;22.13;;;12.23;;
50585;SDS011;36542;51.700;8.846;2023-01-29T11:43:12;24.17;;;12.97;;
50585;SDS011;36542;51.700;8.846;2023-01-29T11:45:42;21.67;;;12.83;;
50585;SDS011;36542;51.700;8.846;2023-01-29T11:48:12;22.00;;;12.57;;
50585;SDS011;36542;51.700;8.846;2023-01-29T11:50:40;18.17;;;11.27;;
50585;SDS011;36542;51.700;8.846;2023-01-29T11:53:16;22.40;;;13.77;;
50585;SDS011;36542;51.700;8.846;2023-01-29T11:55:48;23.20;;;13.03;;
50585;SDS011;36542;51.700;8.846;2023-01-29T11:58:16;21.57;;;11.60;;
50585;SDS011;36542;51.700;8.846;2023-01-29T12:00:45;20.00;;;11.90;;
50585;SDS011;36542;51.700;8.846;2023-01-29T12:03:28;21.40;;;12.47;;
50585;SDS011;36542;51.700;8.846;2023-01-29T12:06:04;19.80;;;11.60;;
50585;SDS011;36542;51.700;8.846;2023-01-29T12:08:34;20.47;;;12.07;;
50585;SDS011;36542;51.700;8.846;2023-01-29T12:11:12;19.20;;;11.40;;
50585;SDS011;36542;51.700;8.846;2023-01-29T12:13:47;20.30;;;11.87;;
50585;SDS011;36542;51.700;8.846;2023-01-29T12:16:32;22.30;;;12.23;;
50585;SDS011;36542;51.700;8.846;2023-01-29T12:19:05;19.67;;;12.00;;
50585;SDS011;36542;51.700;8.846;2023-01-29T12:22:09;22.03;;;11.90;;
50585;SDS011;36542;51.700;8.846;2023-01-29T12:25:00;18.53;;;12.17;;
50585;SDS011;36542;51.700;8.846;2023-01-29T12:27:53;19.80;;;12.47;;
50585;SDS011;36542;51.700;8.846;2023-01-29T12:30:28;23.27;;;11.87;;
50585;SDS011;36542;51.700;8.846;2023-01-29T12:33:03;22.47;;;12.33;;
50585;SDS011;36542;51.700;8.846;2023-01-29T12:35:41;17.17;;;10.73;;
50585;SDS011;36542;51.700;8.846;2023-01-29T12:38:17;18.57;;;12.00;;
50585;SDS011;36542;51.700;8.846;2023-01-29T12:40:55;20.03;;;13.10;;
50585;SDS011;36542;51.700;8.846;2023-01-29T12:43:36;31.23;;;23.10;;
50585;SDS011;36542;51.700;8.846;2023-01-29T12:46:07;24.53;;;15.67;;
50585;SDS011;36542;51.700;8.846;2023-01-29T12:48:42;19.17;;;12.23;;
50585;SDS011;36542;51.700;8.846;2023-01-29T12:51:10;18.43;;;11.33;;
50585;SDS011;36542;51.700;8.846;2023-01-29T12:56:15;18.93;;;12.00;;
50585;SDS011;36542;51.700;8.846;2023-01-29T12:58:51;18.93;;;12.27;;
50585;SDS011;36542;51.700;8.846;2023-01-29T13:01:21;19.83;;;12.47;;
50585;SDS011;36542;51.700;8.846;2023-01-29T13:06:39;17.57;;;11.43;;
50585;SDS011;36542;51.700;8.846;2023-01-29T13:09:13;19.60;;;11.73;;
50585;SDS011;36542;51.700;8.846;2023-01-29T13:11:51;22.13;;;13.20;;
50585;SDS011;36542;51.700;8.846;2023-01-29T13:14:53;22.57;;;14.43;;
50585;SDS011;36542;51.700;8.846;2023-01-29T13:19:52;22.77;;;14.37;;
50585;SDS011;36542;51.700;8.846;2023-01-29T13:22:23;27.53;;;17.57;;
50585;SDS011;36542;51.700;8.846;2023-01-29T13:24:51;25.60;;;14.93;;
50585;SDS011;36542;51.700;8.846;2023-01-29T13:27:19;27.13;;;17.17;;
50585;SDS011;36542;51.700;8.846;2023-01-29T13:29:49;21.30;;;14.90;;
50585;SDS011;36542;51.700;8.846;2023-01-29T13:32:26;21.20;;;12.80;;
50585;SDS011;36542;51.700;8.846;2023-01-29T13:35:00;22.13;;;13.70;;
50585;SDS011;36542;51.700;8.846;2023-01-29T13:37:30;21.17;;;12.97;;
50585;SDS011;36542;51.700;8.846;2023-01-29T13:40:00;21.90;;;14.13;;
50585;SDS011;36542;51.700;8.846;2023-01-29T13:42:34;24.80;;;13.80;;
50585;SDS011;36542;51.700;8.846;2023-01-29T13:45:08;23.33;;;14.17;;
50585;SDS011;36542;51.700;8.846;2023-01-29T13:47:50;27.90;;;15.50;;
50585;SDS011;36542;51.700;8.846;2023-01-29T13:50:34;23.00;;;14.77;;
50585;SDS011;36542;51.700;8.846;2023-01-29T13:53:03;23.37;;;15.37;;
50585;SDS011;36542;51.700;8.846;2023-01-29T13:55:32;26.47;;;15.17;;
50585;SDS011;36542;51.700;8.846;2023-01-29T13:58:01;29.67;;;15.20;;
50585;SDS011;36542;51.700;8.846;2023-01-29T14:07:56;29.67;;;17.37;;
50585;SDS011;36542;51.700;8.846;2023-01-29T14:10:24;30.43;;;16.77;;
50585;SDS011;36542;51.700;8.846;2023-01-29T14:12:52;26.93;;;16.53;;
50585;SDS011;36542;51.700;8.846;2023-01-29T14:17:53;29.67;;;17.77;;
50585;SDS011;36542;51.700;8.846;2023-01-29T14:23:32;30.93;;;18.27;;
50585;SDS011;36542;51.700;8.846;2023-01-29T14:26:17;28.23;;;16.97;;
50585;SDS011;36542;51.700;8.846;2023-01-29T14:31:47;30.47;;;18.57;;
50585;SDS011;36542;51.700;8.846;2023-01-29T14:37:18;29.30;;;17.93;;
50585;SDS011;36542;51.700;8.846;2023-01-29T14:39:47;34.80;;;18.50;;
50585;SDS011;36542;51.700;8.846;2023-01-29T14:50:36;31.60;;;19.83;;
50585;SDS011;36542;51.700;8.846;2023-01-29T14:52:48;33.77;;;18.97;;
50585;SDS011;36542;51.700;8.846;2023-01-29T14:55:25;31.97;;;19.00;;
50585;SDS011;36542;51.700;8.846;2023-01-29T14:57:59;31.70;;;19.10;;
50585;SDS011;36542;51.700;8.846;2023-01-29T15:00:26;31.90;;;18.53;;
50585;SDS011;36542;51.700;8.846;2023-01-29T15:02:53;30.93;;;19.00;;
50585;SDS011;36542;51.700;8.846;2023-01-29T15:05:23;30.87;;;19.23;;
50585;SDS011;36542;51.700;8.846;2023-01-29T15:07:57;33.47;;;19.83;;
50585;SDS011;36542;51.700;8.846;2023-01-29T15:10:33;31.67;;;19.77;;
50585;SDS011;36542;51.700;8.846;2023-01-29T15:13:07;30.20;;;18.40;;
50585;SDS011;36542;51.700;8.846;2023-01-29T15:15:55;30.23;;;17.70;;
50585;SDS011;36542;51.700;8.846;2023-01-29T15:18:32;28.00;;;17.17;;
50585;SDS011;36542;51.700;8.846;2023-01-29T15:21:08;30.87;;;18.87;;
50585;SDS011;36542;51.700;8.846;2023-01-29T15:23:36;28.87;;;17.83;;
50585;SDS011;36542;51.700;8.846;2023-01-29T15:26:07;31.20;;;17.77;;
50585;SDS011;36542;51.700;8.846;2023-01-29T15:28:41;32.20;;;19.63;;
50585;SDS011;36542;51.700;8.846;2023-01-29T15:31:10;30.63;;;19.07;;
50585;SDS011;36542;51.700;8.846;2023-01-29T15:33:37;34.23;;;19.97;;
50585;SDS011;36542;51.700;8.846;2023-01-29T15:36:06;31.13;;;17.67;;
50585;SDS011;36542;51.700;8.846;2023-01-29T15:38:39;35.20;;;20.20;;
50585;SDS011;36542;51.700;8.846;2023-01-29T15:41:15;33.83;;;18.77;;
50585;SDS011;36542;51.700;8.846;2023-01-29T15:43:49;37.20;;;20.50;;
50585;SDS011;36542;51.700;8.846;2023-01-29T15:46:25;36.60;;;18.93;;
50585;SDS011;36542;51.700;8.846;2023-01-29T15:48:59;31.37;;;19.00;;
50585;SDS011;36542;51.700;8.846;2023-01-29T15:51:30;34.00;;;18.87;;
50585;SDS011;36542;51.700;8.846;2023-01-29T15:53:57;32.07;;;17.97;;
50585;SDS011;36542;51.700;8.846;2023-01-29T15:56:28;33.67;;;19.60;;
50585;SDS011;36542;51.700;8.846;2023-01-29T15:58:58;33.47;;;19.10;;
50585;SDS011;36542;51.700;8.846;2023-01-29T16:01:27;34.60;;;20.30;;
50585;SDS011;36542;51.700;8.846;2023-01-29T16:03:53;37.13;;;21.47;;
50585;SDS011;36542;51.700;8.846;2023-01-29T16:06:19;40.83;;;22.07;;
50585;SDS011;36542;51.700;8.846;2023-01-29T16:08:47;40.03;;;21.13;;
50585;SDS011;36542;51.700;8.846;2023-01-29T16:11:15;37.43;;;22.20;;
50585;SDS011;36542;51.700;8.846;2023-01-29T16:13:43;62.73;;;33.40;;
50585;SDS011;36542;51.700;8.846;2023-01-29T16:18:41;41.97;;;22.83;;
50585;SDS011;36542;51.700;8.846;2023-01-29T16:21:10;43.20;;;22.37;;
50585;SDS011;36542;51.700;8.846;2023-01-29T16:23:41;36.10;;;22.43;;
50585;SDS011;36542;51.700;8.846;2023-01-29T16:26:14;39.30;;;23.00;;
50585;SDS011;36542;51.700;8.846;2023-01-29T16:28:43;39.50;;;22.80;;
50585;SDS011;36542;51.700;8.846;2023-01-29T16:31:09;45.20;;;25.07;;